Time;durP1;ratioP1;P1;durP2;ratioP2;P2;SDS_P1;SDS_P2;PMS_P1;PMS_P2;Temp;Humidity;BMP_temperature;BMP_pressure;BME280_temperature;BME280_humidity;BME280_pressure;Samples;Min_cycle;Max_cycle;Signal;HPM_P1;HPM_P2
2023/08/24 00:00:46;;;;;;;3.13;1.80;;;;;;;;;;4946145;29;20031;-74
2023/08/24 00:03:12;;;;;;;2.72;2.00;;;;;;;;;;4925138;29;20145;-74
2023/08/24 00:05:40;;;;;;;2.95;1.88;;;;;;;;;;4942723;29;20583;-74
2023/08/24 00:08:06;;;;;;;3.17;2.05;;;;;;;;;;4943061;29;20027;-74
2023/08/24 00:10:32;;;;;;;2.95;1.65;;;;;;;;;;4942895;29;20107;-77
2023/08/24 00:12:58;;;;;;;3.05;2.05;;;;;;;;;;4942932;29;20122;-77
2023/08/24 00:15:24;;;;;;;2.33;1.95;;;;;;;;;;4942589;29;20493;-77
2023/08/24 00:17:50;;;;;;;1.73;1.58;;;;;;;;;;4943116;29;20070;-77
2023/08/24 00:20:16;;;;;;;3.90;1.75;;;;;;;;;;4925776;29;20083;-77
2023/08/24 00:22:43;;;;;;;2.70;1.70;;;;;;;;;;4913434;29;20135;-77
2023/08/24 00:25:10;;;;;;;3.17;1.80;;;;;;;;;;4904796;29;20087;-77
2023/08/24 00:27:36;;;;;;;3.40;2.15;;;;;;;;;;4903895;29;20390;-77
2023/08/24 00:30:06;;;;;;;3.03;1.90;;;;;;;;;;4904800;29;20029;-77
2023/08/24 00:32:35;;;;;;;3.25;1.60;;;;;;;;;;4904951;29;20474;-76
2023/08/24 00:35:06;;;;;;;3.25;1.60;;;;;;;;;;4904861;29;20036;-76
2023/08/24 00:37:32;;;;;;;1.90;1.60;;;;;;;;;;4904827;29;20040;-76
2023/08/24 00:40:03;;;;;;;2.28;1.60;;;;;;;;;;4891853;29;20033;-75
2023/08/24 00:42:29;;;;;;;3.47;1.60;;;;;;;;;;4903624;29;20021;-75
2023/08/24 00:44:55;;;;;;;2.20;1.50;;;;;;;;;;4904664;29;20398;-77
2023/08/24 00:47:21;;;;;;;3.40;1.80;;;;;;;;;;4904803;29;20025;-77
2023/08/24 00:49:48;;;;;;;3.72;1.90;;;;;;;;;;4904378;29;20112;-74
2023/08/24 00:52:14;;;;;;;2.47;1.75;;;;;;;;;;4904199;29;20498;-79
2023/08/24 00:54:41;;;;;;;3.90;1.95;;;;;;;;;;4904598;29;20057;-78
2023/08/24 00:57:07;;;;;;;2.38;1.70;;;;;;;;;;4904431;29;20025;-79
2023/08/24 00:59:34;;;;;;;1.85;1.45;;;;;;;;;;4904327;29;20039;-78
2023/08/24 01:02:01;;;;;;;2.72;1.80;;;;;;;;;;4904339;29;20024;-78
2023/08/24 01:04:27;;;;;;;2.25;1.60;;;;;;;;;;4903960;29;20032;-78
2023/08/24 01:06:52;;;;;;;2.22;1.45;;;;;;;;;;4904095;29;20116;-78
2023/08/24 01:09:19;;;;;;;3.70;2.22;;;;;;;;;;4904255;29;20032;-79
2023/08/24 01:12:04;;;;;;;2.60;2.00;;;;;;;;;;4903170;29;20405;-78
2023/08/24 01:14:30;;;;;;;2.33;1.73;;;;;;;;;;4903298;29;20024;-77
2023/08/24 01:16:58;;;;;;;2.67;1.80;;;;;;;;;;4904050;29;20031;-77
2023/08/24 01:19:27;;;;;;;3.55;2.00;;;;;;;;;;4904187;29;20025;-78
2023/08/24 01:21:54;;;;;;;3.28;1.80;;;;;;;;;;4908532;29;20020;-78
2023/08/24 01:24:47;;;;;;;2.22;1.70;;;;;;;;;;4941891;29;20038;-76
2023/08/24 01:27:14;;;;;;;2.55;1.90;;;;;;;;;;4939046;29;20032;-76
2023/08/24 01:29:40;;;;;;;2.60;1.98;;;;;;;;;;4942064;29;20035;-76
2023/08/24 01:32:10;;;;;;;2.70;1.70;;;;;;;;;;4941297;29;20092;-76
2023/08/24 01:34:39;;;;;;;3.15;2.00;;;;;;;;;;4941780;29;20374;-76
2023/08/24 01:37:06;;;;;;;3.63;1.98;;;;;;;;;;4941130;29;20071;-76
2023/08/24 01:39:44;;;;;;;2.53;1.70;;;;;;;;;;4929134;29;20032;-77
2023/08/24 01:42:11;;;;;;;4.03;2.20;;;;;;;;;;4930408;29;20031;-76
2023/08/24 01:44:40;;;;;;;3.20;2.05;;;;;;;;;;4941341;29;20031;-76
2023/08/24 01:47:09;;;;;;;2.30;1.90;;;;;;;;;;4941479;29;20035;-77
2023/08/24 01:49:35;;;;;;;4.82;1.77;;;;;;;;;;4925773;29;20043;-77
2023/08/24 01:52:02;;;;;;;5.70;2.08;;;;;;;;;;4941084;29;20039;-77
2023/08/24 01:54:28;;;;;;;4.65;2.22;;;;;;;;;;4940824;29;20035;-77
2023/08/24 01:56:54;;;;;;;2.45;1.90;;;;;;;;;;4941136;29;20024;-76
2023/08/24 01:59:20;;;;;;;2.80;1.80;;;;;;;;;;4941116;29;20563;-76
2023/08/24 02:01:46;;;;;;;2.22;1.90;;;;;;;;;;4941166;29;20028;-76
2023/08/24 02:04:12;;;;;;;3.55;2.10;;;;;;;;;;4941069;29;20040;-78
2023/08/24 02:06:38;;;;;;;3.53;2.00;;;;;;;;;;4923808;29;20056;-78
2023/08/24 02:09:04;;;;;;;3.30;2.00;;;;;;;;;;4940832;29;20118;-78
2023/08/24 02:11:30;;;;;;;3.67;1.90;;;;;;;;;;4940750;29;20107;-78
2023/08/24 02:13:56;;;;;;;2.55;2.00;;;;;;;;;;4953638;29;20050;-78
2023/08/24 02:16:22;;;;;;;3.33;2.05;;;;;;;;;;4940918;29;20035;-77
2023/08/24 02:18:48;;;;;;;2.90;1.70;;;;;;;;;;4940754;29;20111;-76
2023/08/24 02:21:15;;;;;;;2.33;1.75;;;;;;;;;;4940713;29;20107;-77
2023/08/24 02:23:42;;;;;;;3.42;1.75;;;;;;;;;;4940508;29;20047;-76
2023/08/24 02:26:08;;;;;;;2.63;2.15;;;;;;;;;;4940699;29;20055;-77
2023/08/24 02:28:34;;;;;;;2.70;1.95;;;;;;;;;;4923469;29;20039;-77
2023/08/24 02:31:03;;;;;;;2.20;1.83;;;;;;;;;;4940690;29;20023;-77
2023/08/24 02:33:31;;;;;;;2.72;2.08;;;;;;;;;;4940452;29;20392;-78
2023/08/24 02:35:57;;;;;;;2.78;1.85;;;;;;;;;;4940365;29;20031;-78
2023/08/24 02:38:26;;;;;;;2.85;2.00;;;;;;;;;;4936736;29;20024;-78
2023/08/24 02:41:05;;;;;;;2.95;1.70;;;;;;;;;;4914685;29;20028;-78
2023/08/24 02:43:32;;;;;;;2.80;1.70;;;;;;;;;;4940097;29;20489;-78
2023/08/24 02:46:04;;;;;;;3.53;1.90;;;;;;;;;;4940458;29;20027;-78
2023/08/24 02:48:30;;;;;;;5.00;2.20;;;;;;;;;;4924725;29;20477;-78
2023/08/24 02:50:58;;;;;;;3.63;2.00;;;;;;;;;;4922766;29;20082;-77
2023/08/24 02:53:24;;;;;;;3.03;2.03;;;;;;;;;;4940440;29;20127;-78
2023/08/24 02:55:50;;;;;;;3.03;1.80;;;;;;;;;;4940206;29;20043;-78
2023/08/24 02:58:16;;;;;;;3.05;1.80;;;;;;;;;;4952857;29;20047;-78
2023/08/24 03:00:42;;;;;;;2.47;1.90;;;;;;;;;;4940113;29;20030;-78
2023/08/24 03:03:08;;;;;;;3.10;1.80;;;;;;;;;;4940241;29;20115;-77
2023/08/24 03:05:34;;;;;;;5.38;2.05;;;;;;;;;;4922276;29;20047;-78
2023/08/24 03:08:00;;;;;;;3.80;1.70;;;;;;;;;;4940036;29;20037;-78
2023/08/24 03:10:26;;;;;;;4.65;1.88;;;;;;;;;;4939991;29;20023;-78
2023/08/24 03:12:52;;;;;;;2.88;2.03;;;;;;;;;;4922950;29;20031;-78
2023/08/24 03:15:18;;;;;;;3.45;2.00;;;;;;;;;;4923101;29;20023;-79
2023/08/24 03:17:44;;;;;;;3.10;2.10;;;;;;;;;;4940192;29;20028;-78
2023/08/24 03:20:10;;;;;;;3.13;1.80;;;;;;;;;;4939690;29;20409;-78
2023/08/24 03:22:36;;;;;;;3.08;2.13;;;;;;;;;;4939746;29;20048;-77
2023/08/24 03:25:02;;;;;;;5.60;2.20;;;;;;;;;;4939740;29;20059;-78
2023/08/24 03:27:29;;;;;;;4.63;2.60;;;;;;;;;;4923079;29;20362;-77
2023/08/24 03:29:55;;;;;;;6.60;2.35;;;;;;;;;;4922615;29;20023;-76
2023/08/24 03:32:21;;;;;;;4.90;2.20;;;;;;;;;;4939909;29;20495;-76
2023/08/24 03:34:47;;;;;;;2.42;1.95;;;;;;;;;;4939806;29;20362;-76
2023/08/24 03:37:13;;;;;;;4.03;2.15;;;;;;;;;;4939646;29;20116;-76
2023/08/24 03:39:39;;;;;;;3.95;2.33;;;;;;;;;;4926915;29;20044;-76
2023/08/24 03:42:06;;;;;;;6.00;2.17;;;;;;;;;;4939780;29;20028;-76
2023/08/24 03:44:32;;;;;;;4.95;1.90;;;;;;;;;;4939756;29;20031;-78
2023/08/24 03:46:58;;;;;;;4.57;2.22;;;;;;;;;;4939651;29;20034;-77
2023/08/24 03:49:25;;;;;;;3.55;1.85;;;;;;;;;;4924069;29;20054;-78
2023/08/24 03:51:52;;;;;;;3.58;2.22;;;;;;;;;;4922331;29;20062;-78
2023/08/24 03:54:18;;;;;;;3.75;2.00;;;;;;;;;;4939908;29;20020;-77
2023/08/24 03:56:44;;;;;;;4.32;2.00;;;;;;;;;;4922478;29;20024;-78
2023/08/24 03:59:10;;;;;;;3.92;1.95;;;;;;;;;;4922779;29;20110;-77
2023/08/24 04:01:36;;;;;;;4.60;1.98;;;;;;;;;;4939680;29;20032;-77
2023/08/24 04:04:02;;;;;;;5.10;2.00;;;;;;;;;;4939518;29;20028;-78
2023/08/24 04:06:28;;;;;;;4.28;2.03;;;;;;;;;;4939306;29;20043;-77
2023/08/24 04:08:54;;;;;;;4.72;2.53;;;;;;;;;;4939412;29;20032;-77
2023/08/24 04:11:20;;;;;;;4.15;2.03;;;;;;;;;;4939422;29;20036;-77
2023/08/24 04:13:46;;;;;;;2.95;1.90;;;;;;;;;;4939412;29;20028;-77
2023/08/24 04:16:12;;;;;;;3.25;1.70;;;;;;;;;;4939694;29;20027;-78
2023/08/24 04:18:40;;;;;;;4.38;2.08;;;;;;;;;;4943082;29;20118;-78
2023/08/24 04:21:06;;;;;;;2.72;2.00;;;;;;;;;;4942980;29;20114;-78
2023/08/24 04:23:32;;;;;;;3.58;2.00;;;;;;;;;;4942954;29;20082;-78
2023/08/24 04:25:58;;;;;;;7.10;2.15;;;;;;;;;;4925983;29;20038;-77
2023/08/24 04:28:24;;;;;;;7.38;2.45;;;;;;;;;;4942695;29;20028;-77
2023/08/24 04:30:51;;;;;;;5.00;1.98;;;;;;;;;;4942876;29;20028;-76
2023/08/24 04:33:17;;;;;;;4.18;2.00;;;;;;;;;;4942776;29;20388;-77
2023/08/24 04:35:43;;;;;;;5.45;2.15;;;;;;;;;;4942708;29;20032;-78
2023/08/24 04:38:10;;;;;;;5.10;1.75;;;;;;;;;;4940772;29;20613;-79
2023/08/24 04:40:50;;;;;;;4.20;1.80;;;;;;;;;;4914958;29;20032;-80
2023/08/24 04:43:16;;;;;;;3.33;1.77;;;;;;;;;;4949741;29;20091;-80
2023/08/24 04:45:42;;;;;;;2.95;1.75;;;;;;;;;;4942680;29;20035;-80
2023/08/24 04:48:08;;;;;;;4.28;1.70;;;;;;;;;;4942297;29;20477;-80
2023/08/24 04:50:34;;;;;;;3.60;1.83;;;;;;;;;;4925408;29;20375;-79
2023/08/24 04:53:00;;;;;;;3.83;2.10;;;;;;;;;;4942413;29;20500;-79
2023/08/24 04:55:26;;;;;;;4.28;1.85;;;;;;;;;;4942348;29;20503;-79
2023/08/24 04:57:52;;;;;;;8.38;2.03;;;;;;;;;;4942428;29;20077;-79
2023/08/24 05:00:18;;;;;;;4.82;2.00;;;;;;;;;;4942553;29;20027;-79
2023/08/24 05:02:44;;;;;;;3.67;1.70;;;;;;;;;;4948260;29;20032;-79
2023/08/24 05:05:11;;;;;;;2.80;1.75;;;;;;;;;;4942835;29;20050;-79
2023/08/24 05:07:39;;;;;;;2.60;1.90;;;;;;;;;;4941474;29;20031;-79
2023/08/24 05:10:06;;;;;;;3.00;1.75;;;;;;;;;;4947980;29;20039;-79
2023/08/24 05:12:35;;;;;;;4.07;1.60;;;;;;;;;;4941877;29;20087;-77
2023/08/24 05:15:01;;;;;;;2.33;1.65;;;;;;;;;;4942114;29;20030;-77
2023/08/24 05:17:28;;;;;;;4.38;1.55;;;;;;;;;;4944418;29;20020;-76
2023/08/24 05:19:56;;;;;;;3.58;1.70;;;;;;;;;;4941809;29;20031;-77
2023/08/24 05:22:22;;;;;;;2.83;1.42;;;;;;;;;;4924315;29;20047;-78
2023/08/24 05:24:48;;;;;;;2.05;1.60;;;;;;;;;;4941672;29;20477;-79
2023/08/24 05:27:15;;;;;;;2.83;1.90;;;;;;;;;;4941485;29;20392;-79
2023/08/24 05:29:41;;;;;;;2.90;1.33;;;;;;;;;;4941163;29;20031;-79
2023/08/24 05:32:07;;;;;;;3.28;1.50;;;;;;;;;;4941197;29;20837;-79
2023/08/24 05:34:33;;;;;;;2.67;1.40;;;;;;;;;;4950233;29;20027;-79
2023/08/24 05:36:59;;;;;;;4.63;1.60;;;;;;;;;;4941832;29;20019;-79
2023/08/24 05:39:25;;;;;;;2.03;1.40;;;;;;;;;;4912856;29;20024;-79
2023/08/24 05:41:52;;;;;;;3.80;1.60;;;;;;;;;;4940148;29;20034;-77
2023/08/24 05:44:18;;;;;;;2.55;1.58;;;;;;;;;;4941452;29;20107;-79
2023/08/24 05:46:45;;;;;;;2.20;1.30;;;;;;;;;;4924170;29;20020;-78
2023/08/24 05:49:11;;;;;;;3.38;1.30;;;;;;;;;;4925743;29;20039;-78
2023/08/24 05:51:37;;;;;;;1.75;1.42;;;;;;;;;;4940757;29;20024;-78
2023/08/24 05:54:03;;;;;;;2.60;1.40;;;;;;;;;;4941255;29;20505;-78
2023/08/24 05:56:29;;;;;;;3.67;1.73;;;;;;;;;;4940857;29;20106;-78
2023/08/24 05:58:55;;;;;;;3.80;1.35;;;;;;;;;;4941503;29;20032;-78
2023/08/24 06:01:21;;;;;;;2.22;1.27;;;;;;;;;;4940934;29;20027;-78
2023/08/24 06:03:47;;;;;;;2.28;1.40;;;;;;;;;;4940953;29;20028;-77
2023/08/24 06:06:13;;;;;;;2.78;1.60;;;;;;;;;;4940519;29;20180;-77
2023/08/24 06:08:39;;;;;;;2.30;1.30;;;;;;;;;;4931499;29;20027;-76
2023/08/24 06:11:06;;;;;;;2.72;1.20;;;;;;;;;;4941224;29;20032;-76
2023/08/24 06:13:32;;;;;;;1.95;1.45;;;;;;;;;;4940712;29;20032;-76
2023/08/24 06:15:59;;;;;;;2.28;1.48;;;;;;;;;;4940681;29;20016;-76
2023/08/24 06:18:25;;;;;;;4.32;1.95;;;;;;;;;;4940733;29;20469;-76
2023/08/24 06:20:51;;;;;;;3.63;2.00;;;;;;;;;;4939697;29;20076;-76
2023/08/24 06:23:21;;;;;;;3.13;1.55;;;;;;;;;;4940484;29;20469;-77
2023/08/24 06:25:47;;;;;;;2.90;1.48;;;;;;;;;;4940668;29;20024;-76
2023/08/24 06:28:13;;;;;;;3.95;1.60;;;;;;;;;;4923370;29;20047;-76
2023/08/24 06:30:39;;;;;;;3.30;1.65;;;;;;;;;;4940472;29;20038;-77
2023/08/24 06:33:06;;;;;;;3.90;1.73;;;;;;;;;;4940378;29;20027;-78
2023/08/24 06:35:32;;;;;;;3.30;1.90;;;;;;;;;;4940439;29;20020;-77
2023/08/24 06:37:58;;;;;;;4.10;1.88;;;;;;;;;;4939952;29;20408;-77
2023/08/24 06:40:24;;;;;;;2.50;1.55;;;;;;;;;;4927581;29;20027;-77
2023/08/24 06:42:50;;;;;;;3.72;1.70;;;;;;;;;;4923128;29;20035;-77
2023/08/24 06:45:18;;;;;;;2.03;1.45;;;;;;;;;;4940136;29;20035;-78
2023/08/24 06:47:44;;;;;;;4.40;1.67;;;;;;;;;;4940293;29;20039;-76
2023/08/24 06:50:10;;;;;;;1.77;1.40;;;;;;;;;;4940256;29;20042;-76
2023/08/24 06:52:36;;;;;;;2.65;1.55;;;;;;;;;;4940020;29;20456;-76
2023/08/24 06:55:03;;;;;;;2.38;1.65;;;;;;;;;;4940154;29;20062;-76
2023/08/24 06:57:29;;;;;;;2.30;1.60;;;;;;;;;;4940293;29;20493;-78
2023/08/24 06:59:55;;;;;;;4.45;1.83;;;;;;;;;;4940022;29;20031;-78
2023/08/24 07:02:21;;;;;;;3.80;2.22;;;;;;;;;;4939848;29;20110;-78
2023/08/24 07:04:48;;;;;;;4.53;2.53;;;;;;;;;;4940129;29;20032;-78
2023/08/24 07:07:14;;;;;;;3.22;2.00;;;;;;;;;;4939602;29;20026;-78
2023/08/24 07:09:40;;;;;;;3.30;2.00;;;;;;;;;;4939932;29;20028;-78
2023/08/24 07:12:09;;;;;;;3.95;1.90;;;;;;;;;;4939759;29;20024;-78
2023/08/24 07:14:35;;;;;;;4.32;2.15;;;;;;;;;;4940019;29;20107;-78
2023/08/24 07:17:01;;;;;;;2.53;1.70;;;;;;;;;;4922641;29;20054;-77
2023/08/24 07:19:28;;;;;;;2.58;1.70;;;;;;;;;;4940040;29;20066;-77
2023/08/24 07:21:54;;;;;;;4.07;1.75;;;;;;;;;;4922340;29;20023;-77
2023/08/24 07:24:20;;;;;;;4.28;2.03;;;;;;;;;;4939788;29;20107;-77
2023/08/24 07:26:46;;;;;;;3.97;2.17;;;;;;;;;;4939622;29;20917;-79
2023/08/24 07:29:12;;;;;;;4.50;2.05;;;;;;;;;;4939909;29;20035;-79
2023/08/24 07:31:38;;;;;;;3.85;1.70;;;;;;;;;;4939704;29;20023;-79
2023/08/24 07:34:04;;;;;;;2.70;1.70;;;;;;;;;;4939946;29;20068;-79
2023/08/24 07:36:31;;;;;;;5.72;2.10;;;;;;;;;;4939407;29;20016;-76
2023/08/24 07:38:57;;;;;;;4.38;2.33;;;;;;;;;;4931744;29;20066;-76
2023/08/24 07:41:23;;;;;;;2.78;1.80;;;;;;;;;;4934837;29;20031;-76
2023/08/24 07:43:49;;;;;;;2.95;1.45;;;;;;;;;;4939863;29;20381;-72
2023/08/24 07:46:15;;;;;;;2.95;1.50;;;;;;;;;;4939488;29;20032;-70
2023/08/24 07:48:41;;;;;;;4.30;1.80;;;;;;;;;;4939933;29;20027;-74
2023/08/24 07:51:08;;;;;;;2.50;1.60;;;;;;;;;;4939324;29;20113;-72
2023/08/24 07:53:34;;;;;;;3.55;1.80;;;;;;;;;;4943551;29;20024;-72
2023/08/24 07:56:01;;;;;;;3.17;1.88;;;;;;;;;;4943399;29;20060;-73
2023/08/24 07:58:27;;;;;;;4.43;1.70;;;;;;;;;;4943510;29;20119;-72
2023/08/24 08:00:53;;;;;;;3.95;1.85;;;;;;;;;;4943377;29;20031;-77
2023/08/24 08:03:20;;;;;;;2.92;1.67;;;;;;;;;;4925902;29;20089;-72
2023/08/24 08:05:47;;;;;;;3.72;1.70;;;;;;;;;;4944955;29;20053;-71
2023/08/24 08:08:16;;;;;;;2.80;1.80;;;;;;;;;;4942892;29;20103;-71
2023/08/24 08:10:43;;;;;;;4.65;1.85;;;;;;;;;;4942735;29;20511;-71
2023/08/24 08:13:12;;;;;;;5.35;2.20;;;;;;;;;;4942900;29;20077;-69
2023/08/24 08:15:39;;;;;;;2.90;1.67;;;;;;;;;;4943113;29;20405;-73
2023/08/24 08:18:05;;;;;;;5.10;2.22;;;;;;;;;;4943112;29;20163;-74
2023/08/24 08:20:31;;;;;;;3.83;2.20;;;;;;;;;;4925412;29;20083;-73
2023/08/24 08:22:57;;;;;;;3.17;2.00;;;;;;;;;;4942759;29;20052;-73
2023/08/24 08:25:23;;;;;;;3.97;2.00;;;;;;;;;;4925528;29;20575;-73
2023/08/24 08:27:50;;;;;;;3.22;1.75;;;;;;;;;;4942888;29;20792;-70
2023/08/24 08:30:16;;;;;;;2.35;1.50;;;;;;;;;;4925528;29;20027;-68
2023/08/24 08:32:42;;;;;;;4.20;2.20;;;;;;;;;;4942606;29;20396;-72
2023/08/24 08:35:09;;;;;;;3.40;1.77;;;;;;;;;;4942684;29;20062;-72
2023/08/24 08:37:36;;;;;;;2.80;1.77;;;;;;;;;;4942387;29;20015;-76
2023/08/24 08:40:05;;;;;;;3.28;2.22;;;;;;;;;;4925271;29;20031;-74
2023/08/24 08:42:31;;;;;;;3.03;2.10;;;;;;;;;;4942335;29;20019;-75
2023/08/24 08:44:58;;;;;;;4.00;2.17;;;;;;;;;;4942233;29;20102;-68
2023/08/24 08:47:24;;;;;;;3.00;1.77;;;;;;;;;;4942626;29;20031;-72
2023/08/24 08:49:51;;;;;;;3.35;1.83;;;;;;;;;;4926630;29;20114;-73
2023/08/24 08:52:17;;;;;;;2.65;1.60;;;;;;;;;;4942179;29;20031;-73
2023/08/24 08:54:43;;;;;;;5.10;1.83;;;;;;;;;;4942134;29;20024;-74
2023/08/24 08:57:09;;;;;;;3.15;2.03;;;;;;;;;;4942480;29;20024;-72
2023/08/24 08:59:36;;;;;;;2.92;2.00;;;;;;;;;;4942179;29;20111;-71
2023/08/24 09:02:04;;;;;;;3.58;1.80;;;;;;;;;;4925175;29;20513;-71
2023/08/24 09:04:32;;;;;;;2.60;1.60;;;;;;;;;;4923958;29;20068;-74
2023/08/24 09:06:58;;;;;;;2.63;1.60;;;;;;;;;;4942079;29;20132;-71
2023/08/24 09:09:25;;;;;;;3.53;1.98;;;;;;;;;;4941406;29;20096;-72
2023/08/24 09:11:51;;;;;;;3.83;1.98;;;;;;;;;;4941746;29;20103;-72
2023/08/24 09:14:17;;;;;;;2.33;1.63;;;;;;;;;;4941795;29;20031;-72
2023/08/24 09:16:43;;;;;;;3.08;1.60;;;;;;;;;;4924619;29;20023;-72
2023/08/24 09:19:11;;;;;;;3.47;1.92;;;;;;;;;;4941960;29;20106;-72
2023/08/24 09:21:41;;;;;;;4.45;2.15;;;;;;;;;;4924044;29;20099;-75
2023/08/24 09:24:08;;;;;;;3.95;2.42;;;;;;;;;;4942002;29;20031;-71
2023/08/24 09:26:36;;;;;;;2.75;1.83;;;;;;;;;;4941645;29;20031;-71
2023/08/24 09:29:12;;;;;;;2.20;1.80;;;;;;;;;;4941710;29;20028;-71
2023/08/24 09:31:39;;;;;;;3.42;2.10;;;;;;;;;;4941707;29;20024;-71
2023/08/24 09:34:05;;;;;;;3.33;1.90;;;;;;;;;;4924607;29;20023;-71
2023/08/24 09:36:32;;;;;;;4.13;2.35;;;;;;;;;;4941464;29;20606;-70
2023/08/24 09:39:00;;;;;;;2.22;1.85;;;;;;;;;;4916424;29;20079;-68
2023/08/24 09:41:37;;;;;;;2.65;1.83;;;;;;;;;;4936990;29;20027;-68
2023/08/24 09:44:04;;;;;;;2.72;2.00;;;;;;;;;;4941517;29;20131;-69
2023/08/24 09:46:30;;;;;;;6.22;2.53;;;;;;;;;;4941370;29;20523;-72
2023/08/24 09:48:58;;;;;;;4.55;2.60;;;;;;;;;;4941464;29;20027;-72
2023/08/24 09:51:26;;;;;;;5.47;3.15;;;;;;;;;;4941111;29;20389;-71
2023/08/24 09:53:53;;;;;;;3.47;2.30;;;;;;;;;;4941572;29;20046;-72
2023/08/24 09:56:20;;;;;;;4.30;2.03;;;;;;;;;;4940930;29;20489;-72
2023/08/24 09:58:46;;;;;;;4.63;2.30;;;;;;;;;;4941168;29;20031;-72
2023/08/24 10:01:13;;;;;;;4.43;2.47;;;;;;;;;;4940885;29;20374;-71
2023/08/24 10:03:40;;;;;;;4.43;2.55;;;;;;;;;;4941156;29;20032;-71
2023/08/24 10:06:10;;;;;;;6.00;2.83;;;;;;;;;;4940727;29;20070;-72
2023/08/24 10:08:37;;;;;;;2.90;2.17;;;;;;;;;;4941080;29;20031;-72
2023/08/24 10:11:04;;;;;;;4.25;2.38;;;;;;;;;;4924212;29;20024;-70
2023/08/24 10:13:38;;;;;;;5.00;2.30;;;;;;;;;;4940942;29;20055;-70
2023/08/24 10:16:05;;;;;;;2.97;2.20;;;;;;;;;;4940571;29;20059;-71
2023/08/24 10:18:31;;;;;;;5.00;2.30;;;;;;;;;;4940764;29;20091;-71
2023/08/24 10:20:58;;;;;;;4.53;2.47;;;;;;;;;;4940586;29;20035;-71
2023/08/24 10:23:25;;;;;;;4.43;2.50;;;;;;;;;;4940295;29;20063;-72
2023/08/24 10:25:52;;;;;;;2.38;2.17;;;;;;;;;;4923590;29;20519;-68
2023/08/24 10:28:19;;;;;;;4.20;2.55;;;;;;;;;;4940500;29;20059;-71
2023/08/24 10:30:45;;;;;;;3.65;2.47;;;;;;;;;;4940680;29;20024;-70
2023/08/24 10:33:12;;;;;;;4.63;2.70;;;;;;;;;;4923391;29;20035;-70
2023/08/24 10:35:40;;;;;;;3.78;2.35;;;;;;;;;;4940492;29;20023;-70
2023/08/24 10:38:06;;;;;;;3.75;2.60;;;;;;;;;;4938898;29;20485;-70
2023/08/24 10:40:33;;;;;;;4.55;2.45;;;;;;;;;;4929031;29;20028;-70
2023/08/24 10:42:59;;;;;;;3.72;2.60;;;;;;;;;;4940296;29;20107;-70
2023/08/24 10:45:25;;;;;;;4.15;2.40;;;;;;;;;;4946909;29;20079;-70
2023/08/24 10:47:53;;;;;;;3.80;2.75;;;;;;;;;;4923063;29;20058;-70
2023/08/24 10:50:19;;;;;;;3.47;2.47;;;;;;;;;;4939882;29;20020;-70
2023/08/24 10:52:46;;;;;;;4.32;2.10;;;;;;;;;;4923107;29;20031;-70
2023/08/24 10:55:27;;;;;;;4.03;2.60;;;;;;;;;;4923015;29;20020;-71
2023/08/24 10:57:58;;;;;;;4.13;2.70;;;;;;;;;;4923020;29;20047;-70
2023/08/24 11:00:27;;;;;;;4.00;2.10;;;;;;;;;;4940241;29;20028;-70
2023/08/24 11:02:53;;;;;;;3.55;2.33;;;;;;;;;;4939931;29;20056;-70
2023/08/24 11:05:21;;;;;;;5.93;2.92;;;;;;;;;;4947498;29;20027;-70
2023/08/24 11:07:57;;;;;;;3.95;2.75;;;;;;;;;;4946076;29;20035;-70
2023/08/24 11:10:32;;;;;;;2.70;2.30;;;;;;;;;;4922736;29;20496;-70
2023/08/24 11:13:04;;;;;;;5.68;3.42;;;;;;;;;;4943644;29;20030;-70
2023/08/24 11:15:31;;;;;;;4.20;2.28;;;;;;;;;;4947281;29;20527;-69
2023/08/24 11:18:15;;;;;;;4.93;2.60;;;;;;;;;;4949874;29;20055;-69
2023/08/24 11:20:48;;;;;;;3.30;2.45;;;;;;;;;;4945470;29;20493;-69
2023/08/24 11:23:15;;;;;;;3.00;2.10;;;;;;;;;;4927405;29;20096;-69
2023/08/24 11:25:41;;;;;;;4.07;2.50;;;;;;;;;;4948230;28;20024;-70
2023/08/24 11:28:07;;;;;;;3.22;2.10;;;;;;;;;;4947410;29;20092;-70
2023/08/24 11:30:34;;;;;;;3.28;2.25;;;;;;;;;;4929809;29;20122;-71
2023/08/24 11:33:00;;;;;;;4.57;2.50;;;;;;;;;;4948926;29;20024;-71
2023/08/24 11:35:26;;;;;;;4.82;3.40;;;;;;;;;;4948837;29;20015;-71
2023/08/24 11:37:53;;;;;;;4.25;2.58;;;;;;;;;;4949009;29;20473;-71
2023/08/24 11:40:28;;;;;;;4.13;2.30;;;;;;;;;;4947611;29;20078;-71
2023/08/24 11:42:55;;;;;;;2.85;2.20;;;;;;;;;;4945304;29;20062;-71
2023/08/24 11:45:21;;;;;;;4.13;2.17;;;;;;;;;;4949944;29;20104;-71
2023/08/24 11:47:47;;;;;;;4.03;2.25;;;;;;;;;;4946978;29;20049;-71
2023/08/24 11:50:13;;;;;;;3.75;2.50;;;26.10;99.90;;;;;;4948504;29;20024;-71
2023/08/24 11:52:40;;;;;;;4.45;2.60;;;26.00;99.90;;;;;;4929598;29;20027;-71
2023/08/24 11:55:06;;;;;;;4.07;2.38;;;26.00;99.90;;;;;;4949200;29;20074;-71
2023/08/24 11:57:36;;;;;;;2.60;2.35;;;25.90;99.90;;;;;;4939521;29;20107;-72
2023/08/24 12:00:05;;;;;;;3.53;2.40;;;26.00;99.90;;;;;;4939385;29;20043;-72
2023/08/24 12:02:32;;;;;;;6.40;2.50;;;25.90;99.90;;;;;;4939426;29;20039;-72
2023/08/24 12:04:58;;;;;;;3.08;2.50;;;26.00;99.90;;;;;;4939608;29;20020;-71
2023/08/24 12:07:26;;;;;;;2.83;1.98;;;26.00;99.90;;;;;;4921912;29;20505;-69
2023/08/24 12:09:54;;;;;;;4.07;2.10;;;26.20;99.90;;;;;;4939523;29;20020;-70
2023/08/24 12:12:26;;;;;;;2.63;2.08;;;26.20;99.90;;;;;;4939164;29;20031;-69
2023/08/24 12:14:51;;;;;;;3.53;1.90;;;26.30;99.90;;;;;;4939593;29;20031;-69
2023/08/24 12:17:18;;;;;;;2.25;1.90;;;26.40;99.90;;;;;;4939209;29;20035;-70
2023/08/24 12:19:59;;;;;;;3.03;1.85;;;26.40;99.90;;;;;;4939465;29;20030;-70
2023/08/24 12:22:24;;;;;;;2.92;2.35;;;26.40;99.90;;;;;;4938785;29;20060;-70
2023/08/24 12:24:50;;;;;;;3.08;2.30;;;26.40;99.90;;;;;;4939008;29;20035;-69
2023/08/24 12:27:34;;;;;;;5.57;2.00;;;26.40;99.90;;;;;;4939114;29;20024;-70
2023/08/24 12:30:03;;;;;;;3.75;1.85;;;26.40;99.90;;;;;;4939170;29;20107;-70
2023/08/24 12:32:44;;;;;;;2.22;1.77;;;26.40;99.90;;;;;;4939303;29;20045;-69
2023/08/24 12:35:09;;;;;;;3.13;2.17;;;26.50;99.90;;;;;;4939115;29;20058;-69
2023/08/24 12:37:36;;;;;;;3.40;2.10;;;26.60;99.90;;;;;;4939925;29;20027;-69
2023/08/24 12:40:05;;;;;;;2.60;1.88;;;26.70;99.90;;;;;;4929605;29;20031;-70
2023/08/24 12:42:31;;;;;;;3.25;2.03;;;26.70;99.90;;;;;;4942735;29;20067;-69
2023/08/24 12:44:57;;;;;;;3.53;2.20;;;26.70;99.90;;;;;;4925322;29;20035;-68
2023/08/24 12:47:22;;;;;;;3.47;2.20;;;26.70;99.90;;;;;;4942403;29;20028;-71
2023/08/24 12:49:50;;;;;;;3.90;2.30;;;26.80;99.90;;;;;;4942250;29;20086;-71
2023/08/24 12:52:16;;;;;;;2.92;2.50;;;26.90;99.90;;;;;;4925032;29;20512;-70
2023/08/24 12:54:42;;;;;;;3.30;2.55;;;26.90;99.90;;;;;;4942181;29;20030;-70
2023/08/24 12:57:08;;;;;;;3.88;2.25;;;27.00;99.90;;;;;;4942465;29;20032;-71
2023/08/24 12:59:34;;;;;;;2.92;2.00;;;27.10;99.90;;;;;;4942212;29;20038;-70
2023/08/24 13:01:59;;;;;;;4.88;2.28;;;27.20;99.90;;;;;;4942369;29;20556;-69
2023/08/24 13:04:26;;;;;;;4.57;2.45;;;27.30;99.90;;;;;;4925083;29;20038;-69
2023/08/24 13:06:52;;;;;;;7.75;4.97;;;27.30;99.90;;;;;;4942067;29;20032;-69
2023/08/24 13:09:18;;;;;;;4.72;3.05;;;27.40;99.90;;;;;;4924433;29;20031;-69
2023/08/24 13:11:43;;;;;;;3.92;3.00;;;27.40;99.90;;;;;;4942023;29;20027;-69
2023/08/24 13:14:09;;;;;;;3.15;2.38;;;27.40;99.90;;;;;;4924782;29;20027;-69
2023/08/24 13:16:35;;;;;;;3.13;2.65;;;27.50;99.90;;;;;;4941869;29;20031;-69
2023/08/24 13:19:00;;;;;;;5.57;3.50;;;27.60;99.90;;;;;;4924739;29;20051;-69
2023/08/24 13:21:26;;;;;;;4.13;2.55;;;27.70;99.90;;;;;;4941734;29;20032;-68
2023/08/24 13:23:52;;;;;;;2.63;2.42;;;27.70;99.90;;;;;;4941581;29;20083;-69
2023/08/24 13:26:19;;;;;;;2.50;2.30;;;27.80;99.40;;;;;;4924640;29;20527;-68
2023/08/24 13:28:45;;;;;;;3.78;2.08;;;;;;;;;;4941679;29;20054;-68
2023/08/24 13:31:11;;;;;;;3.60;2.20;;;27.90;97.60;;;;;;4941641;29;20531;-69
2023/08/24 13:33:36;;;;;;;2.47;2.28;;;28.00;99.20;;;;;;4941360;29;20416;-68
2023/08/24 13:36:02;;;;;;;5.32;2.80;;;28.10;97.20;;;;;;4941200;29;20028;-68
2023/08/24 13:38:28;;;;;;;4.05;2.92;;;28.10;97.10;;;;;;4937047;29;20062;-68
2023/08/24 13:40:53;;;;;;;4.70;2.30;;;28.20;97.00;;;;;;4933140;29;20032;-69
2023/08/24 13:43:19;;;;;;;2.28;1.80;;;28.30;97.20;;;;;;4941447;29;20429;-72
2023/08/24 13:45:45;;;;;;;4.28;2.20;;;28.40;93.10;;;;;;4941393;29;20107;-72
2023/08/24 13:48:11;;;;;;;2.85;1.95;;;28.40;90.30;;;;;;4925352;29;20160;-74
2023/08/24 13:50:36;;;;;;;2.47;1.65;;;28.60;89.50;;;;;;4940412;29;20031;-73
2023/08/24 13:53:02;;;;;;;2.20;1.90;;;28.60;90.40;;;;;;4941238;29;20388;-73
2023/08/24 13:55:29;;;;;;;2.05;1.60;;;28.80;92.20;;;;;;4941216;29;20054;-74
2023/08/24 13:57:55;;;;;;;2.65;1.90;;;;;;;;;;4941113;29;20035;-73
2023/08/24 14:00:23;;;;;;;2.30;1.95;;;28.80;87.30;;;;;;4924000;29;20020;-74
2023/08/24 14:02:49;;;;;;;3.92;2.13;;;28.90;90.30;;;;;;4923926;29;20036;-74
2023/08/24 14:05:15;;;;;;;3.75;2.13;;;28.90;87.90;;;;;;4923853;29;20063;-73
2023/08/24 14:07:41;;;;;;;3.40;2.20;;;29.00;83.50;;;;;;4924275;29;20095;-73
2023/08/24 14:10:07;;;;;;;4.13;2.35;;;28.90;88.50;;;;;;4926318;29;20023;-74
2023/08/24 14:12:33;;;;;;;3.20;2.13;;;29.00;89.30;;;;;;4948308;29;20034;-74
2023/08/24 14:14:59;;;;;;;2.30;1.90;;;29.10;88.80;;;;;;4931724;29;20559;-74
2023/08/24 14:17:25;;;;;;;2.25;2.05;;;29.10;90.10;;;;;;4950276;29;20062;-74
2023/08/24 14:19:50;;;;;;;4.97;2.60;;;29.10;85.80;;;;;;4949887;29;20020;-74